sensor_id;sensor_type;location;lat;lon;timestamp;temperature;humidity
3466;DHT22;1747;48.884;9.160;2023-07-28T00:00:16;18.60;99.90
3466;DHT22;1747;48.884;9.160;2023-07-28T00:02:43;18.50;99.90
3466;DHT22;1747;48.884;9.160;2023-07-28T00:05:10;18.50;99.90
3466;DHT22;1747;48.884;9.160;2023-07-28T00:07:38;18.40;99.90
3466;DHT22;1747;48.884;9.160;2023-07-28T00:10:06;18.40;99.90
3466;DHT22;1747;48.884;9.160;2023-07-28T00:12:34;18.40;99.90
3466;DHT22;1747;48.884;9.160;2023-07-28T00:15:01;18.40;99.90
3466;DHT22;1747;48.884;9.160;2023-07-28T00:17:28;18.40;99.90
3466;DHT22;1747;48.884;9.160;2023-07-28T00:19:54;18.40;99.90
3466;DHT22;1747;48.884;9.160;2023-07-28T00:22:21;18.40;99.90
3466;DHT22;1747;48.884;9.160;2023-07-28T00:24:49;18.30;99.90
3466;DHT22;1747;48.884;9.160;2023-07-28T00:27:16;18.40;99.90
3466;DHT22;1747;48.884;9.160;2023-07-28T00:29:44;18.50;99.90
3466;DHT22;1747;48.884;9.160;2023-07-28T00:32:11;18.60;99.90
3466;DHT22;1747;48.884;9.160;2023-07-28T00:34:37;18.60;99.90
3466;DHT22;1747;48.884;9.160;2023-07-28T00:37:05;18.60;99.90
3466;DHT22;1747;48.884;9.160;2023-07-28T00:39:31;18.60;99.90
3466;DHT22;1747;48.884;9.160;2023-07-28T00:42:00;18.60;99.90
3466;DHT22;1747;48.884;9.160;2023-07-28T00:44:26;18.60;99.90
3466;DHT22;1747;48.884;9.160;2023-07-28T00:46:53;18.60;99.90
3466;DHT22;1747;48.884;9.160;2023-07-28T00:49:20;18.70;99.90
3466;DHT22;1747;48.884;9.160;2023-07-28T00:51:48;18.70;99.90
3466;DHT22;1747;48.884;9.160;2023-07-28T00:54:16;18.70;99.90
3466;DHT22;1747;48.884;9.160;2023-07-28T00:56:43;18.70;99.90
3466;DHT22;1747;48.884;9.160;2023-07-28T00:59:13;18.70;99.90
3466;DHT22;1747;48.884;9.160;2023-07-28T01:01:40;18.60;99.90
3466;DHT22;1747;48.884;9.160;2023-07-28T01:04:07;18.60;99.90
3466;DHT22;1747;48.884;9.160;2023-07-28T01:06:42;18.60;99.90
3466;DHT22;1747;48.884;9.160;2023-07-28T01:09:14;18.50;99.90
3466;DHT22;1747;48.884;9.160;2023-07-28T01:11:53;18.50;99.90
3466;DHT22;1747;48.884;9.160;2023-07-28T01:14:21;18.50;99.90
3466;DHT22;1747;48.884;9.160;2023-07-28T01:16:48;18.40;99.90
3466;DHT22;1747;48.884;9.160;2023-07-28T01:19:17;18.40;99.90
3466;DHT22;1747;48.884;9.160;2023-07-28T01:21:46;18.40;99.90
3466;DHT22;1747;48.884;9.160;2023-07-28T01:24:19;18.40;99.90
3466;DHT22;1747;48.884;9.160;2023-07-28T01:26:49;18.40;99.90
3466;DHT22;1747;48.884;9.160;2023-07-28T01:29:17;18.40;99.90
3466;DHT22;1747;48.884;9.160;2023-07-28T01:31:46;18.40;99.90
3466;DHT22;1747;48.884;9.160;2023-07-28T01:34:13;18.40;99.90
3466;DHT22;1747;48.884;9.160;2023-07-28T01:36:40;18.40;99.90
3466;DHT22;1747;48.884;9.160;2023-07-28T01:39:07;18.30;99.90
3466;DHT22;1747;48.884;9.160;2023-07-28T01:41:34;18.30;99.90
3466;DHT22;1747;48.884;9.160;2023-07-28T01:44:02;18.30;99.90
3466;DHT22;1747;48.884;9.160;2023-07-28T01:46:29;18.20;99.90
3466;DHT22;1747;48.884;9.160;2023-07-28T01:48:56;18.20;99.90
3466;DHT22;1747;48.884;9.160;2023-07-28T01:51:22;18.20;99.90
3466;DHT22;1747;48.884;9.160;2023-07-28T01:53:49;18.10;99.90
3466;DHT22;1747;48.884;9.160;2023-07-28T01:56:16;18.10;99.90
3466;DHT22;1747;48.884;9.160;2023-07-28T01:58:43;18.10;99.90
3466;DHT22;1747;48.884;9.160;2023-07-28T02:01:12;18.10;99.90
3466;DHT22;1747;48.884;9.160;2023-07-28T02:03:39;18.10;99.90
3466;DHT22;1747;48.884;9.160;2023-07-28T02:06:06;18.00;99.90
3466;DHT22;1747;48.884;9.160;2023-07-28T02:08:33;18.00;99.90
3466;DHT22;1747;48.884;9.160;2023-07-28T02:10:59;18.00;99.90
3466;DHT22;1747;48.884;9.160;2023-07-28T02:13:26;18.00;99.90
3466;DHT22;1747;48.884;9.160;2023-07-28T02:15:53;18.00;99.90
3466;DHT22;1747;48.884;9.160;2023-07-28T02:18:21;18.00;99.90
3466;DHT22;1747;48.884;9.160;2023-07-28T02:20:48;18.00;99.90
3466;DHT22;1747;48.884;9.160;2023-07-28T02:23:15;18.00;99.90
3466;DHT22;1747;48.884;9.160;2023-07-28T02:25:42;18.00;99.90
3466;DHT22;1747;48.884;9.160;2023-07-28T02:28:10;18.00;99.90
3466;DHT22;1747;48.884;9.160;2023-07-28T02:30:37;18.00;99.90
3466;DHT22;1747;48.884;9.160;2023-07-28T02:33:04;17.90;99.90
3466;DHT22;1747;48.884;9.160;2023-07-28T02:35:33;17.90;99.90
3466;DHT22;1747;48.884;9.160;2023-07-28T02:38:00;17.90;99.90
3466;DHT22;1747;48.884;9.160;2023-07-28T02:40:27;17.90;99.90
3466;DHT22;1747;48.884;9.160;2023-07-28T02:42:53;17.80;99.90
3466;DHT22;1747;48.884;9.160;2023-07-28T02:45:22;17.70;99.90
3466;DHT22;1747;48.884;9.160;2023-07-28T02:47:50;17.70;99.90
3466;DHT22;1747;48.884;9.160;2023-07-28T02:50:16;17.70;99.90
3466;DHT22;1747;48.884;9.160;2023-07-28T02:52:45;17.80;99.90
3466;DHT22;1747;48.884;9.160;2023-07-28T02:55:11;17.80;99.90
3466;DHT22;1747;48.884;9.160;2023-07-28T02:57:38;17.80;99.90
3466;DHT22;1747;48.884;9.160;2023-07-28T03:00:06;17.80;99.90
3466;DHT22;1747;48.884;9.160;2023-07-28T03:02:36;17.70;99.90
3466;DHT22;1747;48.884;9.160;2023-07-28T03:05:03;17.70;99.90
3466;DHT22;1747;48.884;9.160;2023-07-28T03:07:30;17.70;99.90
3466;DHT22;1747;48.884;9.160;2023-07-28T03:09:58;17.70;99.90
3466;DHT22;1747;48.884;9.160;2023-07-28T03:12:25;17.70;99.90
3466;DHT22;1747;48.884;9.160;2023-07-28T03:14:52;17.70;99.90
3466;DHT22;1747;48.884;9.160;2023-07-28T03:17:19;17.80;99.90
3466;DHT22;1747;48.884;9.160;2023-07-28T03:19:46;17.80;99.90
3466;DHT22;1747;48.884;9.160;2023-07-28T03:22:12;17.80;99.90
3466;DHT22;1747;48.884;9.160;2023-07-28T03:24:39;17.80;99.90
3466;DHT22;1747;48.884;9.160;2023-07-28T03:27:08;17.80;99.90
3466;DHT22;1747;48.884;9.160;2023-07-28T03:29:35;17.90;99.90
3466;DHT22;1747;48.884;9.160;2023-07-28T03:32:02;17.90;99.90
3466;DHT22;1747;48.884;9.160;2023-07-28T03:34:29;17.90;99.90
3466;DHT22;1747;48.884;9.160;2023-07-28T03:36:56;17.90;99.90
3466;DHT22;1747;48.884;9.160;2023-07-28T03:39:23;18.00;99.90
3466;DHT22;1747;48.884;9.160;2023-07-28T03:41:49;18.10;99.90
3466;DHT22;1747;48.884;9.160;2023-07-28T03:44:18;18.10;99.90
3466;DHT22;1747;48.884;9.160;2023-07-28T03:46:45;18.20;99.90
3466;DHT22;1747;48.884;9.160;2023-07-28T03:49:12;18.20;99.90
3466;DHT22;1747;48.884;9.160;2023-07-28T03:51:39;18.30;99.90
3466;DHT22;1747;48.884;9.160;2023-07-28T03:54:05;18.30;99.90
3466;DHT22;1747;48.884;9.160;2023-07-28T03:56:32;18.30;99.90
3466;DHT22;1747;48.884;9.160;2023-07-28T03:58:59;18.40;99.90
3466;DHT22;1747;48.884;9.160;2023-07-28T04:01:27;18.40;99.90
3466;DHT22;1747;48.884;9.160;2023-07-28T04:03:54;18.40;99.90
3466;DHT22;1747;48.884;9.160;2023-07-28T04:06:39;18.50;99.90
3466;DHT22;1747;48.884;9.160;2023-07-28T04:09:06;18.50;99.90
3466;DHT22;1747;48.884;9.160;2023-07-28T04:11:33;18.40;99.90
3466;DHT22;1747;48.884;9.160;2023-07-28T04:14:00;18.40;99.90
3466;DHT22;1747;48.884;9.160;2023-07-28T04:16:29;18.40;99.90
3466;DHT22;1747;48.884;9.160;2023-07-28T04:18:56;18.30;99.90
3466;DHT22;1747;48.884;9.160;2023-07-28T04:21:23;18.30;99.90
3466;DHT22;1747;48.884;9.160;2023-07-28T04:23:50;18.30;99.90
3466;DHT22;1747;48.884;9.160;2023-07-28T04:26:17;18.20;99.90
3466;DHT22;1747;48.884;9.160;2023-07-28T04:28:44;18.30;99.90
3466;DHT22;1747;48.884;9.160;2023-07-28T04:31:11;18.30;99.90
3466;DHT22;1747;48.884;9.160;2023-07-28T04:33:41;18.30;99.90
3466;DHT22;1747;48.884;9.160;2023-07-28T04:36:08;18.30;99.90
3466;DHT22;1747;48.884;9.160;2023-07-28T04:38:35;18.40;99.90
3466;DHT22;1747;48.884;9.160;2023-07-28T04:41:02;18.40;99.90
3466;DHT22;1747;48.884;9.160;2023-07-28T04:43:28;18.40;99.90
3466;DHT22;1747;48.884;9.160;2023-07-28T04:45:55;18.40;99.90
3466;DHT22;1747;48.884;9.160;2023-07-28T04:48:23;18.40;99.90
3466;DHT22;1747;48.884;9.160;2023-07-28T04:50:51;18.30;99.90
3466;DHT22;1747;48.884;9.160;2023-07-28T04:53:18;18.30;99.90
3466;DHT22;1747;48.884;9.160;2023-07-28T04:55:45;18.30;99.90
3466;DHT22;1747;48.884;9.160;2023-07-28T04:58:12;18.30;99.90
3466;DHT22;1747;48.884;9.160;2023-07-28T05:00:38;18.30;99.90
3466;DHT22;1747;48.884;9.160;2023-07-28T05:03:05;18.30;99.90
3466;DHT22;1747;48.884;9.160;2023-07-28T05:05:32;18.30;99.90
3466;DHT22;1747;48.884;9.160;2023-07-28T05:08:00;18.40;99.90
3466;DHT22;1747;48.884;9.160;2023-07-28T05:10:27;18.50;99.90
3466;DHT22;1747;48.884;9.160;2023-07-28T05:12:54;18.50;99.90
3466;DHT22;1747;48.884;9.160;2023-07-28T05:15:21;18.40;99.90
3466;DHT22;1747;48.884;9.160;2023-07-28T05:17:49;18.50;99.90
3466;DHT22;1747;48.884;9.160;2023-07-28T05:20:16;18.50;99.90
3466;DHT22;1747;48.884;9.160;2023-07-28T05:22:43;18.50;99.90
3466;DHT22;1747;48.884;9.160;2023-07-28T05:25:11;18.40;99.90
3466;DHT22;1747;48.884;9.160;2023-07-28T05:27:38;18.40;99.90
3466;DHT22;1747;48.884;9.160;2023-07-28T05:30:06;18.40;99.90
3466;DHT22;1747;48.884;9.160;2023-07-28T05:32:33;18.40;99.90
3466;DHT22;1747;48.884;9.160;2023-07-28T05:35:00;18.40;99.90
3466;DHT22;1747;48.884;9.160;2023-07-28T05:37:27;18.40;99.90
3466;DHT22;1747;48.884;9.160;2023-07-28T05:39:54;18.50;99.90
3466;DHT22;1747;48.884;9.160;2023-07-28T05:42:23;18.60;99.90
3466;DHT22;1747;48.884;9.160;2023-07-28T05:44:50;18.70;99.90
3466;DHT22;1747;48.884;9.160;2023-07-28T05:47:18;18.70;99.90
3466;DHT22;1747;48.884;9.160;2023-07-28T05:49:46;18.80;99.90
3466;DHT22;1747;48.884;9.160;2023-07-28T05:52:13;18.80;99.90
3466;DHT22;1747;48.884;9.160;2023-07-28T05:54:39;18.90;99.90
3466;DHT22;1747;48.884;9.160;2023-07-28T05:57:06;18.90;99.90
3466;DHT22;1747;48.884;9.160;2023-07-28T05:59:34;18.90;99.90
3466;DHT22;1747;48.884;9.160;2023-07-28T06:02:01;19.00;99.90
3466;DHT22;1747;48.884;9.160;2023-07-28T06:04:28;19.00;99.90
3466;DHT22;1747;48.884;9.160;2023-07-28T06:06:55;19.00;99.90
3466;DHT22;1747;48.884;9.160;2023-07-28T06:09:22;19.00;99.90
3466;DHT22;1747;48.884;9.160;2023-07-28T06:11:49;19.00;99.90
3466;DHT22;1747;48.884;9.160;2023-07-28T06:14:16;19.00;99.90
3466;DHT22;1747;48.884;9.160;2023-07-28T06:16:44;19.10;99.90
3466;DHT22;1747;48.884;9.160;2023-07-28T06:19:11;19.10;99.90
3466;DHT22;1747;48.884;9.160;2023-07-28T06:21:38;19.20;99.90
3466;DHT22;1747;48.884;9.160;2023-07-28T06:24:05;19.20;99.90
3466;DHT22;1747;48.884;9.160;2023-07-28T06:26:32;19.20;99.90
3466;DHT22;1747;48.884;9.160;2023-07-28T06:28:59;19.20;99.90
3466;DHT22;1747;48.884;9.160;2023-07-28T06:31:26;19.20;99.90
3466;DHT22;1747;48.884;9.160;2023-07-28T06:33:54;19.30;99.90
3466;DHT22;1747;48.884;9.160;2023-07-28T06:36:21;19.40;99.90
3466;DHT22;1747;48.884;9.160;2023-07-28T06:38:48;19.40;99.90
3466;DHT22;1747;48.884;9.160;2023-07-28T06:41:15;19.50;99.90
3466;DHT22;1747;48.884;9.160;2023-07-28T06:43:42;19.50;99.90
3466;DHT22;1747;48.884;9.160;2023-07-28T06:46:09;19.50;99.90
3466;DHT22;1747;48.884;9.160;2023-07-28T06:48:37;19.70;99.90
3466;DHT22;1747;48.884;9.160;2023-07-28T06:51:06;19.70;99.90
3466;DHT22;1747;48.884;9.160;2023-07-28T06:53:38;19.80;99.90
3466;DHT22;1747;48.884;9.160;2023-07-28T06:56:08;19.70;99.90
3466;DHT22;1747;48.884;9.160;2023-07-28T06:58:35;19.80;99.90
3466;DHT22;1747;48.884;9.160;2023-07-28T07:01:14;19.80;99.90
3466;DHT22;1747;48.884;9.160;2023-07-28T07:04:12;19.90;99.90
3466;DHT22;1747;48.884;9.160;2023-07-28T07:06:53;19.90;99.90
3466;DHT22;1747;48.884;9.160;2023-07-28T07:09:22;19.90;99.90
3466;DHT22;1747;48.884;9.160;2023-07-28T09:56:29;23.80;99.90
3466;DHT22;1747;48.884;9.160;2023-07-28T09:58:58;23.90;99.90
3466;DHT22;1747;48.884;9.160;2023-07-28T10:01:30;24.10;99.90
3466;DHT22;1747;48.884;9.160;2023-07-28T10:04:22;24.00;99.90
3466;DHT22;1747;48.884;9.160;2023-07-28T10:06:53;24.00;99.90
3466;DHT22;1747;48.884;9.160;2023-07-28T10:09:23;23.90;99.90
3466;DHT22;1747;48.884;9.160;2023-07-28T10:11:53;24.00;99.90
3466;DHT22;1747;48.884;9.160;2023-07-28T10:14:31;24.00;99.90
3466;DHT22;1747;48.884;9.160;2023-07-28T10:16:59;24.10;99.90
3466;DHT22;1747;48.884;9.160;2023-07-28T10:19:28;24.00;99.90
3466;DHT22;1747;48.884;9.160;2023-07-28T10:22:02;24.10;99.90
3466;DHT22;1747;48.884;9.160;2023-07-28T10:24:52;24.20;99.90
3466;DHT22;1747;48.884;9.160;2023-07-28T10:27:34;24.10;99.90
3466;DHT22;1747;48.884;9.160;2023-07-28T10:30:03;24.00;99.90
3466;DHT22;1747;48.884;9.160;2023-07-28T10:32:38;24.00;99.90
3466;DHT22;1747;48.884;9.160;2023-07-28T10:35:21;24.00;99.90
3466;DHT22;1747;48.884;9.160;2023-07-28T10:37:57;23.90;99.90
3466;DHT22;1747;48.884;9.160;2023-07-28T10:40:39;23.90;99.90
3466;DHT22;1747;48.884;9.160;2023-07-28T10:45:36;23.70;99.90
3466;DHT22;1747;48.884;9.160;2023-07-28T10:48:16;23.80;99.90
3466;DHT22;1747;48.884;9.160;2023-07-28T10:50:45;23.70;99.90
3466;DHT22;1747;48.884;9.160;2023-07-28T10:57:01;23.70;99.90
3466;DHT22;1747;48.884;9.160;2023-07-28T10:59:55;23.60;99.90
3466;DHT22;1747;48.884;9.160;2023-07-28T11:06:33;23.40;99.90
3466;DHT22;1747;48.884;9.160;2023-07-28T11:09:00;23.30;99.90
3466;DHT22;1747;48.884;9.160;2023-07-28T11:11:32;23.20;99.90
3466;DHT22;1747;48.884;9.160;2023-07-28T11:14:00;23.20;99.90
3466;DHT22;1747;48.884;9.160;2023-07-28T11:16:27;23.30;99.90
3466;DHT22;1747;48.884;9.160;2023-07-28T11:18:55;23.40;99.90
3466;DHT22;1747;48.884;9.160;2023-07-28T11:21:23;23.50;99.90
3466;DHT22;1747;48.884;9.160;2023-07-28T11:23:51;23.50;99.90
3466;DHT22;1747;48.884;9.160;2023-07-28T11:26:19;23.60;99.90
3466;DHT22;1747;48.884;9.160;2023-07-28T11:28:47;23.80;99.90
3466;DHT22;1747;48.884;9.160;2023-07-28T11:31:15;23.90;99.90
3466;DHT22;1747;48.884;9.160;2023-07-28T11:33:41;24.00;99.90
3466;DHT22;1747;48.884;9.160;2023-07-28T11:36:08;24.20;99.90
3466;DHT22;1747;48.884;9.160;2023-07-28T11:38:36;24.30;99.90
3466;DHT22;1747;48.884;9.160;2023-07-28T11:41:05;24.40;99.90
3466;DHT22;1747;48.884;9.160;2023-07-28T11:43:32;24.60;99.90
3466;DHT22;1747;48.884;9.160;2023-07-28T11:45:59;24.80;99.90
3466;DHT22;1747;48.884;9.160;2023-07-28T11:48:30;24.90;99.90
3466;DHT22;1747;48.884;9.160;2023-07-28T11:50:57;25.10;99.90
3466;DHT22;1747;48.884;9.160;2023-07-28T11:53:26;25.30;99.90
3466;DHT22;1747;48.884;9.160;2023-07-28T11:55:55;25.70;99.90
3466;DHT22;1747;48.884;9.160;2023-07-28T11:58:30;25.90;99.90
3466;DHT22;1747;48.884;9.160;2023-07-28T12:00:57;25.90;99.90
3466;DHT22;1747;48.884;9.160;2023-07-28T12:03:29;26.00;99.90
3466;DHT22;1747;48.884;9.160;2023-07-28T12:06:05;26.00;99.90
3466;DHT22;1747;48.884;9.160;2023-07-28T12:08:35;26.00;99.90
3466;DHT22;1747;48.884;9.160;2023-07-28T12:11:03;25.90;99.90
3466;DHT22;1747;48.884;9.160;2023-07-28T12:13:31;25.80;99.90
3466;DHT22;1747;48.884;9.160;2023-07-28T12:15:58;25.70;99.90
3466;DHT22;1747;48.884;9.160;2023-07-28T12:18:30;25.60;99.90
3466;DHT22;1747;48.884;9.160;2023-07-28T12:20:57;25.50;99.90
3466;DHT22;1747;48.884;9.160;2023-07-28T12:23:25;25.50;99.90
3466;DHT22;1747;48.884;9.160;2023-07-28T12:25:52;25.40;99.90
3466;DHT22;1747;48.884;9.160;2023-07-28T12:28:21;25.20;99.90
3466;DHT22;1747;48.884;9.160;2023-07-28T12:30:49;25.10;99.90
3466;DHT22;1747;48.884;9.160;2023-07-28T12:33:17;25.00;99.90
3466;DHT22;1747;48.884;9.160;2023-07-28T12:35:44;24.90;99.90
3466;DHT22;1747;48.884;9.160;2023-07-28T12:38:11;24.70;99.90
3466;DHT22;1747;48.884;9.160;2023-07-28T12:40:38;24.70;99.90
3466;DHT22;1747;48.884;9.160;2023-07-28T12:43:05;24.50;99.90
3466;DHT22;1747;48.884;9.160;2023-07-28T12:45:32;24.40;99.90
3466;DHT22;1747;48.884;9.160;2023-07-28T12:48:00;24.40;99.90
3466;DHT22;1747;48.884;9.160;2023-07-28T12:50:27;24.40;99.90
3466;DHT22;1747;48.884;9.160;2023-07-28T12:52:54;24.50;99.90
3466;DHT22;1747;48.884;9.160;2023-07-28T12:55:21;24.60;99.90
3466;DHT22;1747;48.884;9.160;2023-07-28T12:57:47;24.90;99.90
3466;DHT22;1747;48.884;9.160;2023-07-28T13:00:15;25.00;99.90
3466;DHT22;1747;48.884;9.160;2023-07-28T13:02:43;25.00;99.90
3466;DHT22;1747;48.884;9.160;2023-07-28T13:05:12;25.00;99.90
3466;DHT22;1747;48.884;9.160;2023-07-28T13:07:41;25.00;99.90
3466;DHT22;1747;48.884;9.160;2023-07-28T13:10:09;24.80;99.90
3466;DHT22;1747;48.884;9.160;2023-07-28T13:12:36;24.70;99.90
3466;DHT22;1747;48.884;9.160;2023-07-28T13:15:04;24.60;99.90
3466;DHT22;1747;48.884;9.160;2023-07-28T13:17:31;24.40;99.90
3466;DHT22;1747;48.884;9.160;2023-07-28T13:19:58;24.20;99.90
3466;DHT22;1747;48.884;9.160;2023-07-28T13:22:26;24.00;99.90
3466;DHT22;1747;48.884;9.160;2023-07-28T13:24:53;23.90;99.90
3466;DHT22;1747;48.884;9.160;2023-07-28T13:27:19;23.80;99.90
3466;DHT22;1747;48.884;9.160;2023-07-28T13:29:46;23.70;99.90
3466;DHT22;1747;48.884;9.160;2023-07-28T13:32:17;23.60;99.90
3466;DHT22;1747;48.884;9.160;2023-07-28T13:34:45;23.60;99.90
3466;DHT22;1747;48.884;9.160;2023-07-28T13:37:12;23.50;99.90
3466;DHT22;1747;48.884;9.160;2023-07-28T13:39:41;23.50;99.90
3466;DHT22;1747;48.884;9.160;2023-07-28T13:42:08;23.50;99.90
3466;DHT22;1747;48.884;9.160;2023-07-28T13:44:36;23.40;99.90
3466;DHT22;1747;48.884;9.160;2023-07-28T13:47:03;23.30;99.90
3466;DHT22;1747;48.884;9.160;2023-07-28T13:49:31;23.30;99.90
3466;DHT22;1747;48.884;9.160;2023-07-28T13:52:01;23.20;99.90
3466;DHT22;1747;48.884;9.160;2023-07-28T13:54:27;23.20;99.90
3466;DHT22;1747;48.884;9.160;2023-07-28T13:56:56;23.10;99.90
3466;DHT22;1747;48.884;9.160;2023-07-28T13:59:22;23.00;99.90
3466;DHT22;1747;48.884;9.160;2023-07-28T14:01:49;22.80;99.90
3466;DHT22;1747;48.884;9.160;2023-07-28T14:04:16;22.80;99.90
3466;DHT22;1747;48.884;9.160;2023-07-28T14:06:43;22.70;99.90
3466;DHT22;1747;48.884;9.160;2023-07-28T14:09:10;22.70;99.90
3466;DHT22;1747;48.884;9.160;2023-07-28T14:11:38;22.50;99.90
3466;DHT22;1747;48.884;9.160;2023-07-28T14:14:06;22.30;99.90
3466;DHT22;1747;48.884;9.160;2023-07-28T14:16:33;22.10;99.90
3466;DHT22;1747;48.884;9.160;2023-07-28T14:19:00;22.00;99.90
3466;DHT22;1747;48.884;9.160;2023-07-28T14:21:27;22.00;99.90
3466;DHT22;1747;48.884;9.160;2023-07-28T14:23:54;21.90;99.90
3466;DHT22;1747;48.884;9.160;2023-07-28T14:26:21;21.90;99.90
3466;DHT22;1747;48.884;9.160;2023-07-28T14:28:47;21.90;99.90
3466;DHT22;1747;48.884;9.160;2023-07-28T14:31:16;22.00;99.90
3466;DHT22;1747;48.884;9.160;2023-07-28T14:33:43;22.10;99.90
3466;DHT22;1747;48.884;9.160;2023-07-28T14:36:10;22.20;99.90
3466;DHT22;1747;48.884;9.160;2023-07-28T14:38:36;22.20;99.90
3466;DHT22;1747;48.884;9.160;2023-07-28T14:41:03;22.10;99.90
3466;DHT22;1747;48.884;9.160;2023-07-28T14:43:30;22.10;99.90
3466;DHT22;1747;48.884;9.160;2023-07-28T14:45:57;22.10;99.90
3466;DHT22;1747;48.884;9.160;2023-07-28T14:48:25;22.20;99.90
3466;DHT22;1747;48.884;9.160;2023-07-28T14:50:52;22.30;99.90
3466;DHT22;1747;48.884;9.160;2023-07-28T14:53:33;22.20;99.90
3466;DHT22;1747;48.884;9.160;2023-07-28T14:56:00;22.20;99.90
3466;DHT22;1747;48.884;9.160;2023-07-28T14:58:28;22.10;99.90
3466;DHT22;1747;48.884;9.160;2023-07-28T15:00:55;22.10;99.90
3466;DHT22;1747;48.884;9.160;2023-07-28T15:03:25;22.10;99.90
3466;DHT22;1747;48.884;9.160;2023-07-28T15:05:54;22.10;99.90
3466;DHT22;1747;48.884;9.160;2023-07-28T15:08:21;22.20;99.90
3466;DHT22;1747;48.884;9.160;2023-07-28T15:10:48;22.10;99.90
3466;DHT22;1747;48.884;9.160;2023-07-28T15:13:15;22.10;99.90
3466;DHT22;1747;48.884;9.160;2023-07-28T15:15:42;22.10;99.90
3466;DHT22;1747;48.884;9.160;2023-07-28T15:18:10;22.10;99.90
3466;DHT22;1747;48.884;9.160;2023-07-28T15:20:37;22.10;99.90
3466;DHT22;1747;48.884;9.160;2023-07-28T15:23:05;22.20;99.90
3466;DHT22;1747;48.884;9.160;2023-07-28T15:25:32;22.20;99.90
3466;DHT22;1747;48.884;9.160;2023-07-28T15:27:59;22.40;99.90
3466;DHT22;1747;48.884;9.160;2023-07-28T15:30:26;22.30;99.90
3466;DHT22;1747;48.884;9.160;2023-07-28T15:32:53;22.40;99.90
3466;DHT22;1747;48.884;9.160;2023-07-28T15:35:19;22.50;99.90
3466;DHT22;1747;48.884;9.160;2023-07-28T15:37:46;22.40;99.90
3466;DHT22;1747;48.884;9.160;2023-07-28T15:40:14;22.30;99.90
3466;DHT22;1747;48.884;9.160;2023-07-28T15:42:41;22.30;99.90
3466;DHT22;1747;48.884;9.160;2023-07-28T15:45:08;22.20;99.90
3466;DHT22;1747;48.884;9.160;2023-07-28T15:47:35;22.20;99.90
3466;DHT22;1747;48.884;9.160;2023-07-28T15:50:03;22.20;99.90
3466;DHT22;1747;48.884;9.160;2023-07-28T15:52:30;22.10;99.90
3466;DHT22;1747;48.884;9.160;2023-07-28T15:54:57;22.10;99.90
3466;DHT22;1747;48.884;9.160;2023-07-28T15:57:25;22.10;99.90
3466;DHT22;1747;48.884;9.160;2023-07-28T15:59:52;22.00;99.90
3466;DHT22;1747;48.884;9.160;2023-07-28T16:02:19;22.00;99.90
3466;DHT22;1747;48.884;9.160;2023-07-28T16:04:46;22.00;99.90
3466;DHT22;1747;48.884;9.160;2023-07-28T16:07:13;22.00;99.90
3466;DHT22;1747;48.884;9.160;2023-07-28T16:09:40;22.00;99.90
3466;DHT22;1747;48.884;9.160;2023-07-28T16:12:09;21.90;99.90
3466;DHT22;1747;48.884;9.160;2023-07-28T16:14:37;22.00;99.90
3466;DHT22;1747;48.884;9.160;2023-07-28T16:17:04;22.00;99.90
3466;DHT22;1747;48.884;9.160;2023-07-28T16:19:31;22.00;99.90
3466;DHT22;1747;48.884;9.160;2023-07-28T16:21:58;22.00;99.90
3466;DHT22;1747;48.884;9.160;2023-07-28T16:24:26;22.10;99.90
3466;DHT22;1747;48.884;9.160;2023-07-28T16:26:53;22.10;99.90
3466;DHT22;1747;48.884;9.160;2023-07-28T16:29:20;22.20;99.90
3466;DHT22;1747;48.884;9.160;2023-07-28T16:31:48;22.20;99.90
3466;DHT22;1747;48.884;9.160;2023-07-28T16:34:15;22.20;99.90
3466;DHT22;1747;48.884;9.160;2023-07-28T16:36:42;22.20;99.90
3466;DHT22;1747;48.884;9.160;2023-07-28T16:39:09;22.30;99.90
3466;DHT22;1747;48.884;9.160;2023-07-28T16:41:36;22.20;99.90
3466;DHT22;1747;48.884;9.160;2023-07-28T16:44:03;22.20;99.90
3466;DHT22;1747;48.884;9.160;2023-07-28T16:46:30;22.10;99.90
3466;DHT22;1747;48.884;9.160;2023-07-28T16:48:58;22.10;99.90
3466;DHT22;1747;48.884;9.160;2023-07-28T16:51:25;22.10;99.90
3466;DHT22;1747;48.884;9.160;2023-07-28T16:53:52;22.10;99.90
3466;DHT22;1747;48.884;9.160;2023-07-28T16:56:19;22.00;99.90
3466;DHT22;1747;48.884;9.160;2023-07-28T16:58:46;22.00;99.90
3466;DHT22;1747;48.884;9.160;2023-07-28T17:01:13;21.90;99.90
3466;DHT22;1747;48.884;9.160;2023-07-28T17:03:40;21.90;99.90
3466;DHT22;1747;48.884;9.160;2023-07-28T17:06:08;22.00;99.90
3466;DHT22;1747;48.884;9.160;2023-07-28T17:08:35;22.00;99.90
3466;DHT22;1747;48.884;9.160;2023-07-28T17:11:02;22.00;99.90
3466;DHT22;1747;48.884;9.160;2023-07-28T17:13:29;22.10;99.90
3466;DHT22;1747;48.884;9.160;2023-07-28T17:15:56;22.10;99.90
3466;DHT22;1747;48.884;9.160;2023-07-28T17:18:23;22.30;99.90
3466;DHT22;1747;48.884;9.160;2023-07-28T17:20:50;22.40;99.90
3466;DHT22;1747;48.884;9.160;2023-07-28T17:23:19;22.40;99.90
3466;DHT22;1747;48.884;9.160;2023-07-28T17:25:46;22.40;99.90
3466;DHT22;1747;48.884;9.160;2023-07-28T17:28:13;22.40;99.90
3466;DHT22;1747;48.884;9.160;2023-07-28T17:30:40;22.40;99.90
3466;DHT22;1747;48.884;9.160;2023-07-28T17:33:07;22.40;99.90
3466;DHT22;1747;48.884;9.160;2023-07-28T17:35:33;22.40;99.90
3466;DHT22;1747;48.884;9.160;2023-07-28T17:38:00;22.40;99.90
3466;DHT22;1747;48.884;9.160;2023-07-28T17:40:29;22.30;99.90
3466;DHT22;1747;48.884;9.160;2023-07-28T17:42:56;22.40;99.90
3466;DHT22;1747;48.884;9.160;2023-07-28T17:45:26;22.30;99.90
3466;DHT22;1747;48.884;9.160;2023-07-28T17:47:53;22.20;99.90
3466;DHT22;1747;48.884;9.160;2023-07-28T17:50:26;22.20;99.90
3466;DHT22;1747;48.884;9.160;2023-07-28T17:52:53;22.10;99.90
3466;DHT22;1747;48.884;9.160;2023-07-28T17:55:20;22.20;99.90
3466;DHT22;1747;48.884;9.160;2023-07-28T17:57:51;22.10;99.90
3466;DHT22;1747;48.884;9.160;2023-07-28T18:00:18;22.10;99.90
3466;DHT22;1747;48.884;9.160;2023-07-28T18:02:45;22.10;99.90
3466;DHT22;1747;48.884;9.160;2023-07-28T18:05:13;22.10;99.90
3466;DHT22;1747;48.884;9.160;2023-07-28T18:07:40;22.10;99.90
3466;DHT22;1747;48.884;9.160;2023-07-28T18:10:09;22.00;99.90
3466;DHT22;1747;48.884;9.160;2023-07-28T18:12:36;22.00;99.90
3466;DHT22;1747;48.884;9.160;2023-07-28T18:15:06;21.90;99.90
3466;DHT22;1747;48.884;9.160;2023-07-28T18:17:33;21.90;99.90
3466;DHT22;1747;48.884;9.160;2023-07-28T18:20:00;21.90;99.90
3466;DHT22;1747;48.884;9.160;2023-07-28T18:22:28;21.90;99.90
3466;DHT22;1747;48.884;9.160;2023-07-28T18:24:55;21.90;99.90
3466;DHT22;1747;48.884;9.160;2023-07-28T18:27:23;21.80;99.90
3466;DHT22;1747;48.884;9.160;2023-07-28T18:29:50;21.90;99.90
3466;DHT22;1747;48.884;9.160;2023-07-28T18:32:19;21.80;99.90
3466;DHT22;1747;48.884;9.160;2023-07-28T18:34:46;21.80;99.90
3466;DHT22;1747;48.884;9.160;2023-07-28T18:37:13;21.80;99.90
3466;DHT22;1747;48.884;9.160;2023-07-28T18:39:40;21.80;99.90
3466;DHT22;1747;48.884;9.160;2023-07-28T18:42:06;21.80;99.90
3466;DHT22;1747;48.884;9.160;2023-07-28T18:44:33;21.70;99.90
3466;DHT22;1747;48.884;9.160;2023-07-28T18:47:00;21.70;99.90
3466;DHT22;1747;48.884;9.160;2023-07-28T18:49:29;21.70;99.90
3466;DHT22;1747;48.884;9.160;2023-07-28T18:51:56;21.60;99.90
3466;DHT22;1747;48.884;9.160;2023-07-28T18:54:23;21.60;99.90
3466;DHT22;1747;48.884;9.160;2023-07-28T18:56:50;21.60;99.90
3466;DHT22;1747;48.884;9.160;2023-07-28T18:59:18;21.50;99.90
3466;DHT22;1747;48.884;9.160;2023-07-28T19:01:45;21.50;99.90